Ayr, Nebraska
Current Conditions -  °F | °C
As of 10:04 PM on Wednesday 22 Oct 2014 (Local Time) from KHSI Reporting Station
Haze Haze  
Wind Chill: 58°   Ceiling: 3100
Heat Index: 58°   Visibility: 1.5mi
Dew Point: 56°   Wind: 5mph
Humidity: 93%   Direction: 300°WNW
Pressure: 30.04"   Gusts: NA
Location:  40.44°N, 98.44°W
Report Text: KHSI 230304Z AUTO 30004KT 1 1/2SM BR BKN031 BKN045 14/13 A3004 RMK AO2 T01440133
Loading
Personal Weather Stations






























Interactive Weather Map New forecast layout! Learn more

10-Day Weather Forecast

Advertisements
Track Severe Weather on mobile